sensor_id;sensor_type;location;lat;lon;timestamp;P1;durP1;ratioP1;P2;durP2;ratioP2
5752;SDS011;2901;42.140;24.760;2024-03-02T00:00:18;34.10;;;21.00;;
5752;SDS011;2901;42.140;24.760;2024-03-02T00:02:46;43.53;;;21.42;;
5752;SDS011;2901;42.140;24.760;2024-03-02T00:05:13;40.78;;;22.30;;
5752;SDS011;2901;42.140;24.760;2024-03-02T00:07:43;39.13;;;22.08;;
5752;SDS011;2901;42.140;24.760;2024-03-02T00:10:11;43.20;;;21.20;;
5752;SDS011;2901;42.140;24.760;2024-03-02T00:12:39;38.03;;;20.50;;
5752;SDS011;2901;42.140;24.760;2024-03-02T00:18:14;40.20;;;21.92;;
5752;SDS011;2901;42.140;24.760;2024-03-02T00:20:43;40.65;;;22.15;;
5752;SDS011;2901;42.140;24.760;2024-03-02T00:23:08;42.58;;;22.20;;
5752;SDS011;2901;42.140;24.760;2024-03-02T00:25:41;40.50;;;22.95;;
5752;SDS011;2901;42.140;24.760;2024-03-02T00:28:21;36.55;;;23.02;;
5752;SDS011;2901;42.140;24.760;2024-03-02T00:30:54;41.83;;;23.58;;
5752;SDS011;2901;42.140;24.760;2024-03-02T00:33:23;40.63;;;23.55;;
5752;SDS011;2901;42.140;24.760;2024-03-02T00:35:51;39.22;;;23.17;;
5752;SDS011;2901;42.140;24.760;2024-03-02T00:38:17;40.28;;;23.30;;
5752;SDS011;2901;42.140;24.760;2024-03-02T00:40:42;40.88;;;23.30;;
5752;SDS011;2901;42.140;24.760;2024-03-02T00:46:17;49.53;;;25.45;;
5752;SDS011;2901;42.140;24.760;2024-03-02T00:48:54;45.55;;;24.83;;
5752;SDS011;2901;42.140;24.760;2024-03-02T00:51:21;53.77;;;24.53;;
5752;SDS011;2901;42.140;24.760;2024-03-02T00:53:48;50.28;;;24.25;;
5752;SDS011;2901;42.140;24.760;2024-03-02T00:56:14;46.15;;;24.17;;
5752;SDS011;2901;42.140;24.760;2024-03-02T00:58:39;52.10;;;25.95;;
5752;SDS011;2901;42.140;24.760;2024-03-02T01:01:05;55.45;;;26.42;;
5752;SDS011;2901;42.140;24.760;2024-03-02T01:03:32;45.67;;;24.73;;
5752;SDS011;2901;42.140;24.760;2024-03-02T01:05:57;44.38;;;25.20;;
5752;SDS011;2901;42.140;24.760;2024-03-02T01:08:23;65.13;;;26.33;;
5752;SDS011;2901;42.140;24.760;2024-03-02T01:10:49;56.83;;;27.13;;
5752;SDS011;2901;42.140;24.760;2024-03-02T01:13:14;53.53;;;26.92;;
5752;SDS011;2901;42.140;24.760;2024-03-02T01:15:40;65.43;;;27.75;;
5752;SDS011;2901;42.140;24.760;2024-03-02T01:18:05;52.72;;;27.60;;
5752;SDS011;2901;42.140;24.760;2024-03-02T01:20:31;64.70;;;30.10;;
5752;SDS011;2901;42.140;24.760;2024-03-02T01:22:56;67.38;;;28.77;;
5752;SDS011;2901;42.140;24.760;2024-03-02T01:25:22;60.28;;;29.13;;
5752;SDS011;2901;42.140;24.760;2024-03-02T01:27:47;66.15;;;30.52;;
5752;SDS011;2901;42.140;24.760;2024-03-02T01:30:13;72.55;;;30.48;;
5752;SDS011;2901;42.140;24.760;2024-03-02T01:32:38;68.63;;;33.22;;
5752;SDS011;2901;42.140;24.760;2024-03-02T01:35:04;82.45;;;31.40;;
5752;SDS011;2901;42.140;24.760;2024-03-02T01:37:30;74.60;;;31.40;;
5752;SDS011;2901;42.140;24.760;2024-03-02T01:39:55;87.35;;;32.85;;
5752;SDS011;2901;42.140;24.760;2024-03-02T01:42:21;75.57;;;31.23;;
5752;SDS011;2901;42.140;24.760;2024-03-02T01:44:47;72.72;;;31.30;;
5752;SDS011;2901;42.140;24.760;2024-03-02T01:47:12;81.18;;;32.03;;
5752;SDS011;2901;42.140;24.760;2024-03-02T01:49:37;87.07;;;32.83;;
5752;SDS011;2901;42.140;24.760;2024-03-02T01:52:04;78.30;;;32.33;;
5752;SDS011;2901;42.140;24.760;2024-03-02T01:54:29;71.85;;;32.47;;
5752;SDS011;2901;42.140;24.760;2024-03-02T01:56:54;77.18;;;32.13;;
5752;SDS011;2901;42.140;24.760;2024-03-02T01:59:20;78.78;;;31.55;;
5752;SDS011;2901;42.140;24.760;2024-03-02T02:01:45;82.97;;;31.48;;
5752;SDS011;2901;42.140;24.760;2024-03-02T02:04:11;84.18;;;32.65;;
5752;SDS011;2901;42.140;24.760;2024-03-02T02:06:36;71.15;;;31.20;;
5752;SDS011;2901;42.140;24.760;2024-03-02T02:09:02;62.70;;;28.80;;
5752;SDS011;2901;42.140;24.760;2024-03-02T02:11:27;60.95;;;27.48;;
5752;SDS011;2901;42.140;24.760;2024-03-02T02:13:53;61.05;;;26.48;;
5752;SDS011;2901;42.140;24.760;2024-03-02T02:16:20;58.35;;;27.08;;
5752;SDS011;2901;42.140;24.760;2024-03-02T02:18:46;60.00;;;27.60;;
5752;SDS011;2901;42.140;24.760;2024-03-02T02:21:12;56.03;;;26.88;;
5752;SDS011;2901;42.140;24.760;2024-03-02T02:23:37;48.35;;;25.67;;
5752;SDS011;2901;42.140;24.760;2024-03-02T02:26:03;54.00;;;25.30;;
5752;SDS011;2901;42.140;24.760;2024-03-02T02:28:28;47.50;;;26.13;;
5752;SDS011;2901;42.140;24.760;2024-03-02T02:30:54;57.22;;;26.08;;
5752;SDS011;2901;42.140;24.760;2024-03-02T02:33:21;45.28;;;24.88;;
5752;SDS011;2901;42.140;24.760;2024-03-02T02:35:46;41.05;;;24.13;;
5752;SDS011;2901;42.140;24.760;2024-03-02T02:38:12;42.75;;;23.33;;
5752;SDS011;2901;42.140;24.760;2024-03-02T02:40:37;47.75;;;24.10;;
5752;SDS011;2901;42.140;24.760;2024-03-02T02:43:03;42.70;;;25.70;;
5752;SDS011;2901;42.140;24.760;2024-03-02T02:45:28;44.28;;;23.98;;
5752;SDS011;2901;42.140;24.760;2024-03-02T02:47:54;46.22;;;24.52;;
5752;SDS011;2901;42.140;24.760;2024-03-02T02:50:19;44.10;;;24.98;;
5752;SDS011;2901;42.140;24.760;2024-03-02T02:52:45;44.08;;;25.20;;
5752;SDS011;2901;42.140;24.760;2024-03-02T02:55:11;41.50;;;25.65;;
5752;SDS011;2901;42.140;24.760;2024-03-02T02:57:38;50.15;;;25.35;;
5752;SDS011;2901;42.140;24.760;2024-03-02T03:00:05;42.03;;;24.20;;
5752;SDS011;2901;42.140;24.760;2024-03-02T03:02:38;46.13;;;26.03;;
5752;SDS011;2901;42.140;24.760;2024-03-02T03:05:08;47.10;;;24.77;;
5752;SDS011;2901;42.140;24.760;2024-03-02T03:07:34;49.45;;;26.33;;
5752;SDS011;2901;42.140;24.760;2024-03-02T03:10:01;45.50;;;24.73;;
5752;SDS011;2901;42.140;24.760;2024-03-02T03:12:28;44.97;;;24.70;;
5752;SDS011;2901;42.140;24.760;2024-03-02T03:14:53;46.03;;;24.88;;
5752;SDS011;2901;42.140;24.760;2024-03-02T03:17:19;44.83;;;24.92;;
5752;SDS011;2901;42.140;24.760;2024-03-02T03:19:44;54.75;;;26.23;;
5752;SDS011;2901;42.140;24.760;2024-03-02T03:22:09;47.35;;;24.20;;
5752;SDS011;2901;42.140;24.760;2024-03-02T03:24:35;54.35;;;25.75;;
5752;SDS011;2901;42.140;24.760;2024-03-02T03:27:00;34.78;;;23.27;;
5752;SDS011;2901;42.140;24.760;2024-03-02T03:29:26;52.20;;;25.13;;
5752;SDS011;2901;42.140;24.760;2024-03-02T03:31:51;46.60;;;24.10;;
5752;SDS011;2901;42.140;24.760;2024-03-02T03:34:16;39.58;;;23.77;;
5752;SDS011;2901;42.140;24.760;2024-03-02T03:36:42;46.50;;;24.98;;
5752;SDS011;2901;42.140;24.760;2024-03-02T03:39:08;48.88;;;23.58;;
5752;SDS011;2901;42.140;24.760;2024-03-02T03:41:33;47.55;;;23.90;;
5752;SDS011;2901;42.140;24.760;2024-03-02T03:43:59;42.60;;;24.58;;
5752;SDS011;2901;42.140;24.760;2024-03-02T03:46:24;50.00;;;25.00;;
5752;SDS011;2901;42.140;24.760;2024-03-02T03:48:49;47.38;;;24.50;;
5752;SDS011;2901;42.140;24.760;2024-03-02T03:51:15;46.17;;;23.80;;
5752;SDS011;2901;42.140;24.760;2024-03-02T03:53:41;46.35;;;24.45;;
5752;SDS011;2901;42.140;24.760;2024-03-02T03:56:06;41.88;;;23.90;;
5752;SDS011;2901;42.140;24.760;2024-03-02T03:58:32;52.05;;;25.65;;
5752;SDS011;2901;42.140;24.760;2024-03-02T04:00:57;47.13;;;25.90;;
5752;SDS011;2901;42.140;24.760;2024-03-02T04:03:22;49.05;;;24.85;;
5752;SDS011;2901;42.140;24.760;2024-03-02T04:05:48;44.13;;;25.92;;
5752;SDS011;2901;42.140;24.760;2024-03-02T04:08:13;48.40;;;27.27;;
5752;SDS011;2901;42.140;24.760;2024-03-02T04:10:38;51.45;;;26.52;;
5752;SDS011;2901;42.140;24.760;2024-03-02T04:13:05;46.90;;;26.55;;
5752;SDS011;2901;42.140;24.760;2024-03-02T04:15:30;50.83;;;25.93;;
5752;SDS011;2901;42.140;24.760;2024-03-02T04:17:56;52.47;;;26.52;;
5752;SDS011;2901;42.140;24.760;2024-03-02T04:20:21;46.45;;;25.05;;
5752;SDS011;2901;42.140;24.760;2024-03-02T04:22:47;42.17;;;25.55;;
5752;SDS011;2901;42.140;24.760;2024-03-02T04:25:12;42.85;;;25.27;;
5752;SDS011;2901;42.140;24.760;2024-03-02T04:27:37;44.60;;;24.98;;
5752;SDS011;2901;42.140;24.760;2024-03-02T04:30:03;47.30;;;25.20;;
5752;SDS011;2901;42.140;24.760;2024-03-02T04:32:30;44.53;;;23.98;;
5752;SDS011;2901;42.140;24.760;2024-03-02T04:34:56;54.50;;;25.83;;
5752;SDS011;2901;42.140;24.760;2024-03-02T04:37:22;53.95;;;25.38;;
5752;SDS011;2901;42.140;24.760;2024-03-02T04:39:47;50.63;;;26.15;;
5752;SDS011;2901;42.140;24.760;2024-03-02T04:42:12;49.40;;;24.83;;
5752;SDS011;2901;42.140;24.760;2024-03-02T04:44:38;46.65;;;23.80;;
5752;SDS011;2901;42.140;24.760;2024-03-02T04:47:04;49.90;;;25.35;;
5752;SDS011;2901;42.140;24.760;2024-03-02T04:49:29;43.80;;;23.55;;
5752;SDS011;2901;42.140;24.760;2024-03-02T04:51:55;47.90;;;25.00;;
5752;SDS011;2901;42.140;24.760;2024-03-02T04:54:21;49.05;;;24.10;;
5752;SDS011;2901;42.140;24.760;2024-03-02T04:56:47;50.22;;;26.48;;
5752;SDS011;2901;42.140;24.760;2024-03-02T04:59:19;49.92;;;24.88;;
5752;SDS011;2901;42.140;24.760;2024-03-02T05:01:45;58.80;;;26.58;;
5752;SDS011;2901;42.140;24.760;2024-03-02T05:04:10;58.30;;;26.67;;
5752;SDS011;2901;42.140;24.760;2024-03-02T05:06:37;58.30;;;29.75;;
5752;SDS011;2901;42.140;24.760;2024-03-02T05:09:04;79.63;;;38.00;;
5752;SDS011;2901;42.140;24.760;2024-03-02T05:11:29;85.63;;;45.72;;
5752;SDS011;2901;42.140;24.760;2024-03-02T05:14:04;65.72;;;30.73;;
5752;SDS011;2901;42.140;24.760;2024-03-02T05:16:32;55.75;;;27.52;;
5752;SDS011;2901;42.140;24.760;2024-03-02T05:18:59;47.17;;;23.92;;
5752;SDS011;2901;42.140;24.760;2024-03-02T05:21:24;48.67;;;23.58;;
5752;SDS011;2901;42.140;24.760;2024-03-02T05:23:49;46.38;;;24.92;;
5752;SDS011;2901;42.140;24.760;2024-03-02T05:26:15;48.70;;;22.60;;
5752;SDS011;2901;42.140;24.760;2024-03-02T05:28:41;39.97;;;20.35;;
5752;SDS011;2901;42.140;24.760;2024-03-02T05:31:09;46.83;;;23.25;;
5752;SDS011;2901;42.140;24.760;2024-03-02T05:33:39;40.90;;;22.08;;
5752;SDS011;2901;42.140;24.760;2024-03-02T05:36:04;38.70;;;22.67;;
5752;SDS011;2901;42.140;24.760;2024-03-02T05:38:30;40.67;;;22.05;;
5752;SDS011;2901;42.140;24.760;2024-03-02T05:40:56;41.15;;;21.80;;
5752;SDS011;2901;42.140;24.760;2024-03-02T05:43:21;44.63;;;23.52;;
5752;SDS011;2901;42.140;24.760;2024-03-02T05:45:46;37.92;;;22.52;;
5752;SDS011;2901;42.140;24.760;2024-03-02T05:48:12;36.38;;;21.10;;
5752;SDS011;2901;42.140;24.760;2024-03-02T05:50:37;43.35;;;21.70;;
5752;SDS011;2901;42.140;24.760;2024-03-02T05:53:03;43.08;;;21.55;;
5752;SDS011;2901;42.140;24.760;2024-03-02T05:55:28;36.97;;;21.35;;
5752;SDS011;2901;42.140;24.760;2024-03-02T05:57:54;43.15;;;22.20;;
5752;SDS011;2901;42.140;24.760;2024-03-02T06:00:28;36.85;;;22.05;;
5752;SDS011;2901;42.140;24.760;2024-03-02T06:02:53;39.25;;;21.77;;
5752;SDS011;2901;42.140;24.760;2024-03-02T06:05:19;36.92;;;21.35;;
5752;SDS011;2901;42.140;24.760;2024-03-02T06:07:44;37.78;;;21.48;;
5752;SDS011;2901;42.140;24.760;2024-03-02T06:10:10;37.63;;;20.27;;
5752;SDS011;2901;42.140;24.760;2024-03-02T06:12:36;37.58;;;19.67;;
5752;SDS011;2901;42.140;24.760;2024-03-02T06:15:01;26.85;;;19.15;;
5752;SDS011;2901;42.140;24.760;2024-03-02T06:17:27;22.83;;;17.60;;
5752;SDS011;2901;42.140;24.760;2024-03-02T06:19:52;27.05;;;18.48;;
5752;SDS011;2901;42.140;24.760;2024-03-02T06:22:17;27.02;;;17.33;;
5752;SDS011;2901;42.140;24.760;2024-03-02T06:24:44;25.17;;;17.83;;
5752;SDS011;2901;42.140;24.760;2024-03-02T06:27:09;27.00;;;17.75;;
5752;SDS011;2901;42.140;24.760;2024-03-02T06:29:35;28.48;;;17.08;;
5752;SDS011;2901;42.140;24.760;2024-03-02T06:32:00;28.55;;;18.70;;
5752;SDS011;2901;42.140;24.760;2024-03-02T06:34:26;26.05;;;17.13;;
5752;SDS011;2901;42.140;24.760;2024-03-02T06:36:51;24.20;;;17.73;;
5752;SDS011;2901;42.140;24.760;2024-03-02T06:39:17;26.52;;;16.42;;
5752;SDS011;2901;42.140;24.760;2024-03-02T06:41:42;23.00;;;17.33;;
5752;SDS011;2901;42.140;24.760;2024-03-02T06:44:07;28.15;;;17.83;;
5752;SDS011;2901;42.140;24.760;2024-03-02T06:46:33;25.05;;;17.17;;
5752;SDS011;2901;42.140;24.760;2024-03-02T06:48:58;26.65;;;17.02;;
5752;SDS011;2901;42.140;24.760;2024-03-02T06:51:24;18.60;;;14.13;;
5752;SDS011;2901;42.140;24.760;2024-03-02T06:53:49;22.55;;;16.40;;
5752;SDS011;2901;42.140;24.760;2024-03-02T06:56:14;27.67;;;16.98;;
5752;SDS011;2901;42.140;24.760;2024-03-02T06:58:40;23.83;;;15.20;;
5752;SDS011;2901;42.140;24.760;2024-03-02T07:01:05;26.90;;;17.05;;
5752;SDS011;2901;42.140;24.760;2024-03-02T07:03:31;25.95;;;15.90;;
5752;SDS011;2901;42.140;24.760;2024-03-02T07:05:56;24.58;;;16.73;;
5752;SDS011;2901;42.140;24.760;2024-03-02T07:08:22;20.92;;;15.10;;
5752;SDS011;2901;42.140;24.760;2024-03-02T07:10:47;19.05;;;15.48;;
5752;SDS011;2901;42.140;24.760;2024-03-02T07:13:13;23.02;;;16.42;;
5752;SDS011;2901;42.140;24.760;2024-03-02T07:15:38;26.08;;;16.30;;
5752;SDS011;2901;42.140;24.760;2024-03-02T07:18:22;24.33;;;16.60;;
5752;SDS011;2901;42.140;24.760;2024-03-02T07:20:47;21.67;;;15.95;;
5752;SDS011;2901;42.140;24.760;2024-03-02T07:23:14;23.20;;;16.00;;
5752;SDS011;2901;42.140;24.760;2024-03-02T07:25:40;23.25;;;15.25;;
5752;SDS011;2901;42.140;24.760;2024-03-02T07:28:05;20.13;;;14.98;;
5752;SDS011;2901;42.140;24.760;2024-03-02T07:30:32;20.15;;;15.75;;
5752;SDS011;2901;42.140;24.760;2024-03-02T07:32:57;20.17;;;15.70;;
5752;SDS011;2901;42.140;24.760;2024-03-02T07:35:24;20.58;;;15.82;;
5752;SDS011;2901;42.140;24.760;2024-03-02T07:37:52;22.85;;;16.40;;
5752;SDS011;2901;42.140;24.760;2024-03-02T07:40:18;21.55;;;16.05;;
5752;SDS011;2901;42.140;24.760;2024-03-02T07:42:44;25.52;;;17.38;;
5752;SDS011;2901;42.140;24.760;2024-03-02T07:45:10;24.13;;;16.48;;
5752;SDS011;2901;42.140;24.760;2024-03-02T07:47:36;22.92;;;15.60;;
5752;SDS011;2901;42.140;24.760;2024-03-02T07:50:01;23.67;;;16.85;;
5752;SDS011;2901;42.140;24.760;2024-03-02T07:52:27;23.90;;;15.82;;
5752;SDS011;2901;42.140;24.760;2024-03-02T07:54:53;20.38;;;15.68;;
5752;SDS011;2901;42.140;24.760;2024-03-02T07:57:19;17.58;;;14.80;;
5752;SDS011;2901;42.140;24.760;2024-03-02T07:59:44;27.27;;;17.05;;
5752;SDS011;2901;42.140;24.760;2024-03-02T08:02:10;18.73;;;14.20;;
5752;SDS011;2901;42.140;24.760;2024-03-02T08:04:37;20.15;;;14.95;;
5752;SDS011;2901;42.140;24.760;2024-03-02T08:07:03;20.13;;;15.18;;
5752;SDS011;2901;42.140;24.760;2024-03-02T08:09:29;19.02;;;14.48;;
5752;SDS011;2901;42.140;24.760;2024-03-02T08:11:54;20.15;;;15.20;;
5752;SDS011;2901;42.140;24.760;2024-03-02T08:14:21;21.52;;;14.23;;
5752;SDS011;2901;42.140;24.760;2024-03-02T08:16:46;28.95;;;15.73;;
5752;SDS011;2901;42.140;24.760;2024-03-02T08:19:12;34.08;;;23.85;;
5752;SDS011;2901;42.140;24.760;2024-03-02T08:21:37;23.48;;;15.45;;
5752;SDS011;2901;42.140;24.760;2024-03-02T08:24:03;23.27;;;16.70;;
5752;SDS011;2901;42.140;24.760;2024-03-02T08:26:29;18.40;;;14.82;;
5752;SDS011;2901;42.140;24.760;2024-03-02T08:28:56;20.77;;;15.50;;
5752;SDS011;2901;42.140;24.760;2024-03-02T08:31:22;19.65;;;15.75;;
5752;SDS011;2901;42.140;24.760;2024-03-02T08:33:48;16.35;;;12.75;;
5752;SDS011;2901;42.140;24.760;2024-03-02T08:36:13;17.33;;;13.80;;
5752;SDS011;2901;42.140;24.760;2024-03-02T08:38:39;18.88;;;13.70;;
5752;SDS011;2901;42.140;24.760;2024-03-02T08:41:04;15.70;;;13.57;;
5752;SDS011;2901;42.140;24.760;2024-03-02T08:43:30;23.80;;;15.50;;
5752;SDS011;2901;42.140;24.760;2024-03-02T08:45:56;16.85;;;14.63;;
5752;SDS011;2901;42.140;24.760;2024-03-02T08:48:21;17.73;;;14.60;;
5752;SDS011;2901;42.140;24.760;2024-03-02T08:50:46;29.73;;;15.30;;
5752;SDS011;2901;42.140;24.760;2024-03-02T08:53:12;21.92;;;15.20;;
5752;SDS011;2901;42.140;24.760;2024-03-02T08:55:37;21.80;;;13.85;;
5752;SDS011;2901;42.140;24.760;2024-03-02T08:58:03;23.05;;;15.75;;
5752;SDS011;2901;42.140;24.760;2024-03-02T09:00:28;26.05;;;15.25;;
5752;SDS011;2901;42.140;24.760;2024-03-02T09:02:54;26.20;;;17.15;;
5752;SDS011;2901;42.140;24.760;2024-03-02T09:05:19;22.52;;;15.80;;
5752;SDS011;2901;42.140;24.760;2024-03-02T09:07:44;31.50;;;17.13;;
5752;SDS011;2901;42.140;24.760;2024-03-02T09:10:10;27.33;;;17.10;;
5752;SDS011;2901;42.140;24.760;2024-03-02T09:12:35;23.13;;;16.17;;
5752;SDS011;2901;42.140;24.760;2024-03-02T09:15:01;23.30;;;16.17;;
5752;SDS011;2901;42.140;24.760;2024-03-02T09:17:27;29.58;;;16.42;;
5752;SDS011;2901;42.140;24.760;2024-03-02T09:19:53;23.10;;;15.90;;
5752;SDS011;2901;42.140;24.760;2024-03-02T09:22:18;28.92;;;17.73;;
5752;SDS011;2901;42.140;24.760;2024-03-02T09:24:44;24.27;;;16.75;;
5752;SDS011;2901;42.140;24.760;2024-03-02T09:27:10;30.58;;;17.05;;
5752;SDS011;2901;42.140;24.760;2024-03-02T09:29:35;25.58;;;18.55;;
5752;SDS011;2901;42.140;24.760;2024-03-02T09:32:01;33.75;;;18.05;;
5752;SDS011;2901;42.140;24.760;2024-03-02T09:34:26;33.30;;;19.00;;
5752;SDS011;2901;42.140;24.760;2024-03-02T09:36:52;33.60;;;18.02;;
5752;SDS011;2901;42.140;24.760;2024-03-02T09:39:17;43.17;;;18.30;;
5752;SDS011;2901;42.140;24.760;2024-03-02T09:41:43;48.10;;;18.63;;
5752;SDS011;2901;42.140;24.760;2024-03-02T09:44:09;25.75;;;17.92;;
5752;SDS011;2901;42.140;24.760;2024-03-02T09:46:34;28.30;;;17.00;;
5752;SDS011;2901;42.140;24.760;2024-03-02T09:49:01;32.47;;;19.02;;
5752;SDS011;2901;42.140;24.760;2024-03-02T09:51:27;29.08;;;17.83;;
5752;SDS011;2901;42.140;24.760;2024-03-02T09:53:54;31.05;;;18.45;;
5752;SDS011;2901;42.140;24.760;2024-03-02T09:56:20;57.70;;;20.42;;
5752;SDS011;2901;42.140;24.760;2024-03-02T09:58:46;40.13;;;17.95;;
5752;SDS011;2901;42.140;24.760;2024-03-02T10:01:12;38.08;;;18.98;;
5752;SDS011;2901;42.140;24.760;2024-03-02T10:03:38;31.25;;;18.17;;
5752;SDS011;2901;42.140;24.760;2024-03-02T10:06:22;25.95;;;17.63;;
5752;SDS011;2901;42.140;24.760;2024-03-02T10:08:49;26.15;;;15.82;;
5752;SDS011;2901;42.140;24.760;2024-03-02T10:11:31;25.50;;;17.73;;
5752;SDS011;2901;42.140;24.760;2024-03-02T10:16:37;24.40;;;18.55;;
5752;SDS011;2901;42.140;24.760;2024-03-02T10:21:49;26.45;;;18.88;;
5752;SDS011;2901;42.140;24.760;2024-03-02T10:24:16;30.48;;;18.70;;
5752;SDS011;2901;42.140;24.760;2024-03-02T10:26:45;30.00;;;18.60;;
5752;SDS011;2901;42.140;24.760;2024-03-02T10:29:10;20.73;;;16.27;;
5752;SDS011;2901;42.140;24.760;2024-03-02T10:31:40;37.05;;;20.73;;
5752;SDS011;2901;42.140;24.760;2024-03-02T10:34:08;33.67;;;21.02;;
5752;SDS011;2901;42.140;24.760;2024-03-02T10:36:35;31.13;;;19.00;;
5752;SDS011;2901;42.140;24.760;2024-03-02T10:39:04;25.35;;;18.77;;
5752;SDS011;2901;42.140;24.760;2024-03-02T10:41:34;28.00;;;18.50;;
5752;SDS011;2901;42.140;24.760;2024-03-02T10:44:04;32.42;;;20.45;;
5752;SDS011;2901;42.140;24.760;2024-03-02T10:46:31;30.10;;;20.17;;
5752;SDS011;2901;42.140;24.760;2024-03-02T10:48:58;32.72;;;19.13;;
5752;SDS011;2901;42.140;24.760;2024-03-02T10:51:25;36.15;;;19.83;;
5752;SDS011;2901;42.140;24.760;2024-03-02T10:53:52;31.27;;;19.15;;
5752;SDS011;2901;42.140;24.760;2024-03-02T10:56:22;28.23;;;19.45;;
5752;SDS011;2901;42.140;24.760;2024-03-02T10:59:03;31.90;;;20.77;;
5752;SDS011;2901;42.140;24.760;2024-03-02T11:01:31;32.35;;;19.70;;
5752;SDS011;2901;42.140;24.760;2024-03-02T11:03:58;32.55;;;19.70;;
5752;SDS011;2901;42.140;24.760;2024-03-02T11:06:25;31.30;;;19.63;;
5752;SDS011;2901;42.140;24.760;2024-03-02T11:08:53;31.90;;;21.10;;
5752;SDS011;2901;42.140;24.760;2024-03-02T11:11:26;35.40;;;21.40;;
5752;SDS011;2901;42.140;24.760;2024-03-02T11:13:54;31.75;;;19.50;;
5752;SDS011;2901;42.140;24.760;2024-03-02T11:18:57;37.42;;;23.35;;
5752;SDS011;2901;42.140;24.760;2024-03-02T11:21:23;33.42;;;23.10;;
5752;SDS011;2901;42.140;24.760;2024-03-02T11:23:49;33.78;;;22.60;;
5752;SDS011;2901;42.140;24.760;2024-03-02T11:26:18;31.58;;;22.00;;
5752;SDS011;2901;42.140;24.760;2024-03-02T11:28:47;31.13;;;20.77;;
5752;SDS011;2901;42.140;24.760;2024-03-02T11:31:12;37.63;;;21.40;;
5752;SDS011;2901;42.140;24.760;2024-03-02T11:33:38;33.50;;;22.15;;
5752;SDS011;2901;42.140;24.760;2024-03-02T11:36:03;31.38;;;21.63;;
5752;SDS011;2901;42.140;24.760;2024-03-02T11:38:32;33.22;;;22.15;;
5752;SDS011;2901;42.140;24.760;2024-03-02T11:40:59;34.35;;;22.60;;
5752;SDS011;2901;42.140;24.760;2024-03-02T11:43:27;34.85;;;23.10;;
5752;SDS011;2901;42.140;24.760;2024-03-02T11:46:00;33.47;;;22.52;;
5752;SDS011;2901;42.140;24.760;2024-03-02T11:48:29;43.28;;;23.40;;
5752;SDS011;2901;42.140;24.760;2024-03-02T11:50:57;35.25;;;23.10;;
5752;SDS011;2901;42.140;24.760;2024-03-02T11:53:23;30.58;;;22.58;;
5752;SDS011;2901;42.140;24.760;2024-03-02T11:55:49;19.67;;;17.58;;
5752;SDS011;2901;42.140;24.760;2024-03-02T11:58:15;20.15;;;18.02;;
5752;SDS011;2901;42.140;24.760;2024-03-02T12:00:53;22.92;;;17.88;;
5752;SDS011;2901;42.140;24.760;2024-03-02T12:03:20;18.90;;;16.92;;
5752;SDS011;2901;42.140;24.760;2024-03-02T12:05:52;19.13;;;16.80;;
5752;SDS011;2901;42.140;24.760;2024-03-02T12:08:18;19.52;;;17.60;;
5752;SDS011;2901;42.140;24.760;2024-03-02T12:10:44;19.48;;;17.38;;
5752;SDS011;2901;42.140;24.760;2024-03-02T12:13:21;20.77;;;17.42;;
5752;SDS011;2901;42.140;24.760;2024-03-02T12:15:47;21.63;;;17.90;;
5752;SDS011;2901;42.140;24.760;2024-03-02T12:18:13;17.60;;;15.93;;
5752;SDS011;2901;42.140;24.760;2024-03-02T12:20:38;20.05;;;17.13;;
5752;SDS011;2901;42.140;24.760;2024-03-02T12:23:04;17.58;;;15.80;;
5752;SDS011;2901;42.140;24.760;2024-03-02T12:25:30;14.38;;;13.02;;
5752;SDS011;2901;42.140;24.760;2024-03-02T12:27:57;17.95;;;16.08;;
5752;SDS011;2901;42.140;24.760;2024-03-02T12:30:26;18.85;;;16.88;;
5752;SDS011;2901;42.140;24.760;2024-03-02T12:32:54;21.05;;;17.45;;
5752;SDS011;2901;42.140;24.760;2024-03-02T12:35:19;18.40;;;16.50;;
5752;SDS011;2901;42.140;24.760;2024-03-02T12:37:48;19.85;;;17.67;;
5752;SDS011;2901;42.140;24.760;2024-03-02T12:40:16;19.50;;;17.45;;
5752;SDS011;2901;42.140;24.760;2024-03-02T12:42:43;19.13;;;17.15;;
5752;SDS011;2901;42.140;24.760;2024-03-02T12:45:10;18.98;;;16.95;;
5752;SDS011;2901;42.140;24.760;2024-03-02T12:47:36;19.75;;;17.65;;
5752;SDS011;2901;42.140;24.760;2024-03-02T12:50:03;16.95;;;15.35;;
5752;SDS011;2901;42.140;24.760;2024-03-02T12:52:29;19.05;;;17.10;;
5752;SDS011;2901;42.140;24.760;2024-03-02T12:54:57;23.67;;;17.98;;
5752;SDS011;2901;42.140;24.760;2024-03-02T12:57:30;25.35;;;19.52;;
5752;SDS011;2901;42.140;24.760;2024-03-02T13:00:00;18.88;;;16.55;;
5752;SDS011;2901;42.140;24.760;2024-03-02T13:02:34;25.27;;;18.75;;
5752;SDS011;2901;42.140;24.760;2024-03-02T13:05:06;25.52;;;20.38;;
5752;SDS011;2901;42.140;24.760;2024-03-02T13:07:36;24.05;;;18.92;;
5752;SDS011;2901;42.140;24.760;2024-03-02T13:10:02;26.75;;;21.30;;
5752;SDS011;2901;42.140;24.760;2024-03-02T13:12:27;28.48;;;21.45;;
5752;SDS011;2901;42.140;24.760;2024-03-02T13:14:55;24.02;;;20.15;;
5752;SDS011;2901;42.140;24.760;2024-03-02T13:17:20;25.00;;;21.63;;
5752;SDS011;2901;42.140;24.760;2024-03-02T13:19:55;24.35;;;21.23;;
5752;SDS011;2901;42.140;24.760;2024-03-02T13:22:22;25.70;;;22.13;;
5752;SDS011;2901;42.140;24.760;2024-03-02T13:24:48;26.25;;;20.92;;
5752;SDS011;2901;42.140;24.760;2024-03-02T13:27:18;24.85;;;20.48;;
5752;SDS011;2901;42.140;24.760;2024-03-02T13:29:47;27.83;;;22.77;;
5752;SDS011;2901;42.140;24.760;2024-03-02T13:32:13;26.13;;;22.17;;
5752;SDS011;2901;42.140;24.760;2024-03-02T13:34:42;28.08;;;22.05;;
5752;SDS011;2901;42.140;24.760;2024-03-02T13:37:07;26.50;;;23.63;;
5752;SDS011;2901;42.140;24.760;2024-03-02T13:39:33;26.35;;;21.73;;
5752;SDS011;2901;42.140;24.760;2024-03-02T13:42:05;24.50;;;21.17;;
5752;SDS011;2901;42.140;24.760;2024-03-02T13:44:34;24.83;;;22.17;;
5752;SDS011;2901;42.140;24.760;2024-03-02T13:47:00;29.33;;;23.52;;
5752;SDS011;2901;42.140;24.760;2024-03-02T13:49:26;28.63;;;23.25;;
5752;SDS011;2901;42.140;24.760;2024-03-02T13:52:07;27.60;;;23.33;;
5752;SDS011;2901;42.140;24.760;2024-03-02T13:54:38;29.85;;;22.38;;
5752;SDS011;2901;42.140;24.760;2024-03-02T13:57:04;24.00;;;19.60;;
5752;SDS011;2901;42.140;24.760;2024-03-02T13:59:30;23.08;;;20.45;;
5752;SDS011;2901;42.140;24.760;2024-03-02T14:01:55;26.80;;;21.85;;
5752;SDS011;2901;42.140;24.760;2024-03-02T14:04:21;22.13;;;19.73;;
5752;SDS011;2901;42.140;24.760;2024-03-02T14:06:47;24.02;;;19.95;;
5752;SDS011;2901;42.140;24.760;2024-03-02T14:09:12;18.25;;;16.40;;
5752;SDS011;2901;42.140;24.760;2024-03-02T14:11:38;20.23;;;17.60;;
5752;SDS011;2901;42.140;24.760;2024-03-02T14:14:03;16.52;;;15.13;;
5752;SDS011;2901;42.140;24.760;2024-03-02T14:16:29;15.75;;;14.32;;
5752;SDS011;2901;42.140;24.760;2024-03-02T14:18:55;18.10;;;15.77;;
5752;SDS011;2901;42.140;24.760;2024-03-02T14:21:20;18.52;;;16.42;;
5752;SDS011;2901;42.140;24.760;2024-03-02T14:23:45;19.52;;;16.17;;
5752;SDS011;2901;42.140;24.760;2024-03-02T14:26:11;20.98;;;18.77;;
5752;SDS011;2901;42.140;24.760;2024-03-02T14:28:36;18.70;;;16.70;;
5752;SDS011;2901;42.140;24.760;2024-03-02T14:31:02;19.00;;;17.23;;
5752;SDS011;2901;42.140;24.760;2024-03-02T14:33:27;20.25;;;18.10;;
5752;SDS011;2901;42.140;24.760;2024-03-02T14:35:53;19.17;;;17.20;;
5752;SDS011;2901;42.140;24.760;2024-03-02T14:38:19;19.30;;;17.40;;
5752;SDS011;2901;42.140;24.760;2024-03-02T14:40:44;18.58;;;16.85;;
5752;SDS011;2901;42.140;24.760;2024-03-02T14:43:10;22.35;;;16.83;;